Time;durP1;ratioP1;P1;durP2;ratioP2;P2;SDS_P1;SDS_P2;PMS_P1;PMS_P2;Temp;Humidity;BMP_temperature;BMP_pressure;BME280_temperature;BME280_humidity;BME280_pressure;Samples;Min_cycle;Max_cycle;Signal;HPM_P1;HPM_P2
2021/11/01 00:01:28;;;;;;;;;;;15.80;99.90;;;;;;4997664;28;1025;-57
2021/11/01 00:03:54;;;;;;;;;;;15.70;99.90;;;;;;4997479;28;1107;-57
2021/11/01 00:06:20;;;;;;;;;;;15.70;99.90;;;;;;4997515;28;839;-56
2021/11/01 00:08:46;;;;;;;;;;;15.70;99.90;;;;;;4997791;28;1053;-56
2021/11/01 00:11:12;;;;;;;;;;;15.70;99.90;;;;;;4997854;28;1999;-56
2021/11/01 00:13:38;;;;;;;;;;;15.70;99.90;;;;;;4997767;28;917;-57
2021/11/01 00:16:04;;;;;;;;;;;15.70;99.90;;;;;;4997012;28;817;-57
2021/11/01 00:18:30;;;;;;;;;;;15.70;99.90;;;;;;4997400;28;879;-57
2021/11/01 00:20:57;;;;;;;;;;;15.70;99.90;;;;;;4997683;28;827;-56
2021/11/01 00:23:23;;;;;;;;;;;15.70;99.90;;;;;;4981553;28;1246;-57
2021/11/01 00:25:49;;;;;;;;;;;15.70;99.90;;;;;;4997468;28;817;-57
2021/11/01 00:28:15;;;;;;;;;;;15.70;99.90;;;;;;4997622;28;925;-56
2021/11/01 00:30:41;;;;;;;;;;;15.70;99.90;;;;;;4997251;28;887;-56
2021/11/01 00:33:07;;;;;;;;;;;15.70;99.90;;;;;;4981073;28;1906;-57
2021/11/01 00:35:33;;;;;;;;;;;15.70;99.90;;;;;;4997434;28;893;-57
2021/11/01 00:37:59;;;;;;;;;;;15.60;99.90;;;;;;4997386;28;849;-57
2021/11/01 00:40:25;;;;;;;;;;;15.60;99.90;;;;;;4997428;28;813;-56
2021/11/01 00:42:51;;;;;;;;;;;15.60;99.90;;;;;;4997195;28;794;-56
2021/11/01 00:45:17;;;;;;;;;;;15.60;99.90;;;;;;4997406;28;800;-56
2021/11/01 00:47:42;;;;;;;;;;;15.60;99.90;;;;;;4997153;28;1099;-56
2021/11/01 00:50:09;;;;;;;;;;;15.60;99.90;;;;;;4996538;28;981;-56
2021/11/01 00:52:35;;;;;;;;;;;15.60;99.90;;;;;;4996841;28;1969;-57
2021/11/01 00:55:05;;;;;;;;;;;15.60;99.90;;;;;;4997278;28;966;-56
2021/11/01 00:57:31;;;;;;;;;;;15.60;99.90;;;;;;4995742;28;898;-56
2021/11/01 00:59:59;;;;;;;;;;;15.60;99.90;;;;;;4996686;28;1158;-56
2021/11/01 01:02:25;;;;;;;;;;;15.60;99.90;;;;;;4996832;28;1015;-57
2021/11/01 01:04:52;;;;;;;;;;;15.60;99.90;;;;;;4996809;28;895;-57
2021/11/01 01:07:18;;;;;;;;;;;15.60;99.90;;;;;;4996599;28;1137;-57
2021/11/01 01:09:44;;;;;;;;;;;15.60;99.90;;;;;;4996708;28;1084;-57
2021/11/01 01:12:11;;;;;;;;;;;15.60;99.90;;;;;;4996901;28;1910;-56
2021/11/01 01:14:44;;;;;;;;;;;15.50;99.90;;;;;;4996642;28;956;-56
2021/11/01 01:17:10;;;;;;;;;;;15.50;99.90;;;;;;4997019;28;862;-56
2021/11/01 01:19:45;;;;;;;;;;;15.50;99.90;;;;;;4996404;28;870;-56
2021/11/01 01:22:21;;;;;;;;;;;15.50;99.90;;;;;;4996749;28;841;-56
2021/11/01 01:24:47;;;;;;;;;;;15.50;99.90;;;;;;4996359;28;2052;-56
2021/11/01 01:27:13;;;;;;;;;;;15.50;99.90;;;;;;4996753;28;847;-57
2021/11/01 01:29:39;;;;;;;;;;;15.50;99.90;;;;;;4994888;28;1121;-57
2021/11/01 01:32:06;;;;;;;;;;;15.50;99.90;;;;;;4996424;28;1906;-56
2021/11/01 01:34:32;;;;;;;;;;;15.50;99.90;;;;;;4996531;28;1010;-56
2021/11/01 01:36:59;;;;;;;;;;;15.50;99.90;;;;;;4996431;28;913;-57
2021/11/01 01:39:25;;;;;;;;;;;15.50;99.90;;;;;;4996681;28;830;-57
2021/11/01 01:41:51;;;;;;;;;;;15.40;99.90;;;;;;4996709;28;1008;-57
2021/11/01 01:44:17;;;;;;;;;;;15.40;99.90;;;;;;4996824;28;938;-57
2021/11/01 01:46:43;;;;;;;;;;;15.40;99.90;;;;;;4996714;28;852;-57
2021/11/01 01:49:09;;;;;;;;;;;15.40;99.90;;;;;;4996556;28;809;-57
2021/11/01 01:51:35;;;;;;;;;;;15.40;99.90;;;;;;4996214;28;1973;-57
2021/11/01 01:54:02;;;;;;;;;;;15.40;99.90;;;;;;4996287;28;750;-57
2021/11/01 01:56:28;;;;;;;;;;;15.40;99.90;;;;;;4996540;28;818;-57
2021/11/01 01:58:56;;;;;;;;;;;15.40;99.90;;;;;;4996118;28;997;-57
2021/11/01 02:01:26;;;;;;;;;;;15.40;99.90;;;;;;5008603;28;1156;-57
2021/11/01 02:03:53;;;;;;;;;;;15.40;99.90;;;;;;5014903;28;869;-57
2021/11/01 02:06:41;;;;;;;;;;;15.40;99.90;;;;;;5014907;28;855;-57
2021/11/01 02:09:10;;;;;;;;;;;15.30;99.90;;;;;;5017488;28;1281;-57
2021/11/01 02:11:48;;;;;;;;;;;15.30;99.90;;;;;;4998956;28;1902;-57
2021/11/01 02:14:16;;;;;;;;;;;15.30;99.90;;;;;;5000729;28;909;-57
2021/11/01 02:16:43;;;;;;;;;;;15.30;99.90;;;;;;5000813;28;842;-56
2021/11/01 02:19:14;;;;;;;;;;;15.30;99.90;;;;;;5000713;28;841;-56
2021/11/01 02:21:52;;;;;;;;;;;15.30;99.90;;;;;;5000568;28;811;-57
2021/11/01 02:24:18;;;;;;;;;;;15.30;99.90;;;;;;5000568;28;830;-57
2021/11/01 02:26:44;;;;;;;;;;;15.30;99.90;;;;;;5000429;28;834;-56
2021/11/01 02:29:11;;;;;;;;;;;15.30;99.90;;;;;;5000531;28;889;-57
2021/11/01 02:31:37;;;;;;;;;;;15.30;99.90;;;;;;4997131;28;1899;-56
2021/11/01 02:34:04;;;;;;;;;;;15.30;99.90;;;;;;5000403;28;877;-57
2021/11/01 02:36:30;;;;;;;;;;;15.30;99.90;;;;;;4999954;28;865;-57
2021/11/01 02:38:57;;;;;;;;;;;15.30;99.90;;;;;;4996481;28;813;-57
2021/11/01 02:41:25;;;;;;;;;;;15.30;99.90;;;;;;5001291;28;870;-56
2021/11/01 02:43:54;;;;;;;;;;;15.30;99.90;;;;;;4996555;28;980;-56
2021/11/01 02:46:20;;;;;;;;;;;15.30;99.90;;;;;;4996913;28;1045;-57
2021/11/01 02:48:50;;;;;;;;;;;15.20;99.90;;;;;;5018037;28;893;-57
2021/11/01 02:51:17;;;;;;;;;;;15.20;99.90;;;;;;4996605;28;823;-57
2021/11/01 02:53:44;;;;;;;;;;;15.20;99.90;;;;;;4996450;28;1906;-57
2021/11/01 02:56:11;;;;;;;;;;;15.20;99.90;;;;;;4996501;28;1020;-57
2021/11/01 02:58:39;;;;;;;;;;;15.20;99.90;;;;;;4999833;28;929;-56
2021/11/01 03:01:09;;;;;;;;;;;15.20;99.90;;;;;;5003072;28;1265;-57
2021/11/01 03:03:37;;;;;;;;;;;15.20;99.90;;;;;;4999065;28;861;-56
2021/11/01 03:06:03;;;;;;;;;;;15.20;99.90;;;;;;4996121;28;855;-56
2021/11/01 03:08:29;;;;;;;;;;;15.20;99.90;;;;;;4998815;28;809;-57
2021/11/01 03:10:56;;;;;;;;;;;15.20;99.90;;;;;;4999177;28;806;-57
2021/11/01 03:13:23;;;;;;;;;;;15.10;99.90;;;;;;4998409;28;1906;-57
2021/11/01 03:15:49;;;;;;;;;;;15.10;99.90;;;;;;4998713;28;949;-57
2021/11/01 03:18:15;;;;;;;;;;;15.10;99.90;;;;;;4998923;28;906;-57
2021/11/01 03:20:43;;;;;;;;;;;15.10;99.90;;;;;;4997554;28;821;-57
2021/11/01 03:23:11;;;;;;;;;;;15.10;99.90;;;;;;4997381;28;1220;-57
2021/11/01 03:25:42;;;;;;;;;;;15.20;99.90;;;;;;4998826;28;904;-57
2021/11/01 03:28:09;;;;;;;;;;;15.10;99.90;;;;;;4998667;28;736;-57
2021/11/01 03:30:35;;;;;;;;;;;15.10;99.90;;;;;;4996322;28;1610;-57
2021/11/01 03:33:01;;;;;;;;;;;15.10;99.90;;;;;;4998517;28;1910;-57
2021/11/01 03:35:28;;;;;;;;;;;15.10;99.90;;;;;;4998352;28;870;-57
2021/11/01 03:37:57;;;;;;;;;;;15.10;99.90;;;;;;4997884;28;853;-57
2021/11/01 03:40:27;;;;;;;;;;;15.10;99.90;;;;;;4998392;28;861;-56
2021/11/01 03:42:54;;;;;;;;;;;15.10;99.90;;;;;;4998542;28;928;-56
2021/11/01 03:45:22;;;;;;;;;;;15.10;99.90;;;;;;4998172;28;1024;-56
2021/11/01 03:47:49;;;;;;;;;;;15.10;99.90;;;;;;4998486;28;814;-57
2021/11/01 03:52:50;;;;;;;;;;;15.10;99.90;;;;;;4997856;28;1914;-56
2021/11/01 03:55:17;;;;;;;;;;;15.10;99.90;;;;;;4998265;28;1153;-56
2021/11/01 03:57:44;;;;;;;;;;;15.10;99.90;;;;;;4998366;28;854;-56
2021/11/01 04:00:10;;;;;;;;;;;15.10;99.90;;;;;;4997833;28;1107;-57
2021/11/01 04:02:37;;;;;;;;;;;15.10;99.90;;;;;;4997996;28;863;-57
2021/11/01 04:05:03;;;;;;;;;;;15.10;99.90;;;;;;4998085;28;890;-57
2021/11/01 04:07:31;;;;;;;;;;;15.10;99.90;;;;;;4998165;28;855;-57
2021/11/01 04:09:59;;;;;;;;;;;15.10;99.90;;;;;;4998060;28;852;-57
2021/11/01 04:12:25;;;;;;;;;;;15.10;99.90;;;;;;4997843;28;1918;-57
2021/11/01 04:14:56;;;;;;;;;;;15.10;99.90;;;;;;4997750;28;885;-57
2021/11/01 04:17:26;;;;;;;;;;;15.10;99.90;;;;;;4998015;28;901;-57
2021/11/01 04:20:11;;;;;;;;;;;15.00;99.90;;;;;;4997878;28;877;-57
2021/11/01 04:22:37;;;;;;;;;;;15.00;99.90;;;;;;4997490;28;1108;-57
2021/11/01 04:25:07;;;;;;;;;;;15.00;99.90;;;;;;4997398;28;1041;-57
2021/11/01 04:27:33;;;;;;;;;;;15.00;99.90;;;;;;4997576;28;841;-57
2021/11/01 04:30:00;;;;;;;;;;;15.00;99.90;;;;;;4997215;28;999;-57
2021/11/01 04:32:38;;;;;;;;;;;15.00;99.90;;;;;;4997248;28;1964;-57
2021/11/01 04:35:23;;;;;;;;;;;15.00;99.90;;;;;;4997102;28;1056;-57
2021/11/01 04:37:52;;;;;;;;;;;15.00;99.90;;;;;;4997442;28;898;-57
2021/11/01 04:43:15;;;;;;;;;;;15.00;99.90;;;;;;4997510;28;755;-57
2021/11/01 04:53:59;;;;;;;;;;;14.90;99.90;;;;;;4997012;28;1914;-56
2021/11/01 04:56:26;;;;;;;;;;;14.90;99.90;;;;;;4997358;28;846;-56
2021/11/01 04:58:53;;;;;;;;;;;14.90;99.90;;;;;;4997122;28;1055;-56
2021/11/01 05:01:21;;;;;;;;;;;14.90;99.90;;;;;;4996866;28;1395;-56
2021/11/01 05:03:52;;;;;;;;;;;14.90;99.90;;;;;;4996738;28;857;-56
2021/11/01 05:06:22;;;;;;;;;;;14.90;99.90;;;;;;4996550;28;1117;-56
2021/11/01 05:08:53;;;;;;;;;;;14.90;99.90;;;;;;4997031;28;1342;-56
2021/11/01 05:11:37;;;;;;;;;;;14.90;99.90;;;;;;4996986;28;841;-56
2021/11/01 05:14:03;;;;;;;;;;;14.90;99.90;;;;;;4996740;28;1914;-57
2021/11/01 05:19:35;;;;;;;;;;;14.80;99.90;;;;;;4956225;29;1136;-57
2021/11/01 05:22:25;;;;;;;;;;;14.80;99.90;;;;;;4984302;28;1112;-57
2021/11/01 05:24:58;;;;;;;;;;;14.80;99.90;;;;;;4992292;28;1349;-56
2021/11/01 05:30:30;;;;;;;;;;;14.80;99.90;;;;;;4995659;28;1074;-57
2021/11/01 05:33:50;;;;;;;;;;;14.80;99.90;;;;;;4996514;28;1898;-57
2021/11/01 05:35:45;;;;;;;;;;;14.80;99.90;;;;;;4990219;28;1397;-57
2021/11/01 05:38:11;;;;;;;;;;;14.80;99.90;;;;;;4996536;28;1114;-56
2021/11/01 05:40:37;;;;;;;;;;;14.80;99.90;;;;;;4996628;28;913;-56
2021/11/01 05:43:03;;;;;;;;;;;14.80;99.90;;;;;;4998080;28;808;-56
2021/11/01 05:45:29;;;;;;;;;;;14.80;99.90;;;;;;5000549;28;806;-57
2021/11/01 05:48:00;;;;;;;;;;;14.80;99.90;;;;;;5000711;28;936;-56
2021/11/01 05:50:28;;;;;;;;;;;14.80;99.90;;;;;;5000405;28;1513;-56
2021/11/01 05:52:54;;;;;;;;;;;14.80;99.90;;;;;;5000451;28;1903;-56
2021/11/01 05:55:30;;;;;;;;;;;14.80;99.90;;;;;;5000547;28;926;-56
2021/11/01 06:04:33;;;;;;;;;;;14.80;99.90;;;;;;4979142;28;855;-56
2021/11/01 06:09:34;;;;;;;;;;;14.70;99.90;;;;;;4979011;28;916;-56
2021/11/01 06:14:45;;;;;;;;;;;14.70;99.90;;;;;;4979018;28;867;-57
2021/11/01 06:17:11;;;;;;;;;;;14.70;99.90;;;;;;4978956;28;814;-57
2021/11/01 06:19:37;;;;;;;;;;;14.70;99.90;;;;;;4978491;28;1128;-57
2021/11/01 06:22:03;;;;;;;;;;;14.70;99.90;;;;;;4978298;28;895;-56
2021/11/01 06:24:48;;;;;;;;;;;14.70;99.90;;;;;;4978675;28;931;-57
2021/11/01 06:27:16;;;;;;;;;;;14.70;99.90;;;;;;4978099;28;909;-57
2021/11/01 06:43:26;;;;;;;;;;;14.70;99.90;;;;;;5000494;28;834;-57
2021/11/01 07:16:06;;;;;;;;;;;14.70;99.90;;;;;;4998881;28;780;-56
2021/11/01 07:18:39;;;;;;;;;;;14.70;99.90;;;;;;4998715;28;2137;-56
2021/11/01 08:21:46;;;;;;;;;;;16.50;99.90;;;;;;4997317;28;897;-57
2021/11/01 08:48:09;;;;;;;;;;;15.30;99.90;;;;;;4996726;28;780;-57
2021/11/01 09:01:49;;;;;;;;;;;15.10;99.90;;;;;;4996741;28;1338;-57
2021/11/01 09:04:31;;;;;;;;;;;15.10;99.90;;;;;;4996585;28;1519;-57
2021/11/01 09:10:04;;;;;;;;;;;15.10;99.90;;;;;;4996703;28;784;-57
2021/11/01 09:13:05;;;;;;;;;;;15.10;99.90;;;;;;4997105;28;1967;-57
2021/11/01 09:25:56;;;;;;;;;;;15.20;99.90;;;;;;4996584;28;845;-57
2021/11/01 09:29:12;;;;;;;;;;;15.20;99.90;;;;;;4996623;28;928;-57
2021/11/01 09:36:49;;;;;;;;;;;15.20;99.90;;;;;;4996464;28;768;-57
2021/11/01 09:39:40;;;;;;;;;;;15.20;99.90;;;;;;4995684;28;1232;-57
2021/11/01 09:42:04;;;;;;;;;;;15.20;99.90;;;;;;4993161;28;1731;-57
2021/11/01 09:44:32;;;;;;;;;;;15.20;99.90;;;;;;4992757;28;883;-57
2021/11/01 09:46:58;;;;;;;;;;;15.20;99.90;;;;;;4996335;28;816;-57
2021/11/01 09:49:25;;;;;;;;;;;15.20;99.90;;;;;;4996503;28;797;-57
2021/11/01 09:51:52;;;;;;;;;;;15.20;99.90;;;;;;4995789;28;1028;-57
2021/11/01 09:54:29;;;;;;;;;;;15.20;99.90;;;;;;4996008;28;1961;-57
2021/11/01 09:57:03;;;;;;;;;;;15.10;99.90;;;;;;4995916;28;904;-57
2021/11/01 09:59:34;;;;;;;;;;;15.20;99.90;;;;;;4996527;28;1012;-57
2021/11/01 10:02:00;;;;;;;;;;;15.20;99.90;;;;;;4979665;28;1182;-57
2021/11/01 10:04:28;;;;;;;;;;;15.20;99.90;;;;;;4979917;28;2071;-57
2021/11/01 10:09:40;;;;;;;;;;;15.20;99.90;;;;;;4996383;28;867;-57
2021/11/01 10:12:09;;;;;;;;;;;15.20;99.90;;;;;;4996395;28;894;-57
2021/11/01 10:14:44;;;;;;;;;;;15.20;99.90;;;;;;4996270;28;1965;-57
2021/11/01 10:19:57;;;;;;;;;;;15.30;99.90;;;;;;4996142;28;813;-57
2021/11/01 10:22:31;;;;;;;;;;;15.30;99.90;;;;;;4964032;28;1022;-57
2021/11/01 10:24:58;;;;;;;;;;;15.20;99.90;;;;;;4995943;28;820;-57
2021/11/01 10:27:35;;;;;;;;;;;15.20;99.90;;;;;;4996260;28;842;-58
2021/11/01 10:30:04;;;;;;;;;;;15.20;99.90;;;;;;4998826;28;921;-57
2021/11/01 10:32:41;;;;;;;;;;;15.20;99.90;;;;;;4999592;28;814;-57
2021/11/01 10:35:17;;;;;;;;;;;15.20;99.90;;;;;;4999658;28;855;-57
2021/11/01 10:37:58;;;;;;;;;;;15.20;99.90;;;;;;4999456;28;1066;-57
2021/11/01 10:40:26;;;;;;;;;;;15.20;99.90;;;;;;4999140;28;1134;-57
2021/11/01 10:42:53;;;;;;;;;;;15.20;99.90;;;;;;4998423;28;854;-57
2021/11/01 10:45:35;;;;;;;;;;;15.20;99.90;;;;;;4980672;28;1362;-57
2021/11/01 11:13:02;;;;;;;;;;;15.90;99.90;;;;;;4999165;28;795;-57
2021/11/01 11:15:29;;;;;;;;;;;15.90;99.90;;;;;;4999242;28;838;-57
2021/11/01 11:31:00;;;;;;;;;;;16.00;99.90;;;;;;4998660;28;776;-57
2021/11/01 11:48:23;;;;;;;;;;;16.10;99.90;;;;;;4957970;29;1146;-57
2021/11/01 11:50:51;;;;;;;;;;;16.10;99.90;;;;;;4957902;29;897;-58
2021/11/01 11:53:18;;;;;;;;;;;16.10;99.90;;;;;;4982948;28;1907;-57
2021/11/01 11:55:46;;;;;;;;;;;16.10;99.90;;;;;;4997963;28;795;-57
2021/11/01 11:58:13;;;;;;;;;;;16.10;99.90;;;;;;4998400;28;916;-57
2021/11/01 12:00:40;;;;;;;;;;;16.10;99.90;;;;;;4997983;28;1060;-58
2021/11/01 12:03:15;;;;;;;;;;;16.00;99.90;;;;;;4998117;28;839;-58
2021/11/01 12:05:55;;;;;;;;;;;16.00;99.90;;;;;;4997950;28;865;-58
2021/11/01 12:18:58;;;;;;;;;;;16.00;99.90;;;;;;4997863;28;811;-57
2021/11/01 12:21:25;;;;;;;;;;;16.00;99.90;;;;;;4997655;28;870;-57
2021/11/01 12:23:54;;;;;;;;;;;16.00;99.90;;;;;;4997417;28;894;-57
2021/11/01 12:26:23;;;;;;;;;;;16.00;99.90;;;;;;4997814;28;884;-57
2021/11/01 12:28:50;;;;;;;;;;;16.00;99.90;;;;;;4997637;28;790;-57
2021/11/01 12:31:17;;;;;;;;;;;16.00;99.90;;;;;;4994978;28;936;-57
2021/11/01 12:36:51;;;;;;;;;;;16.00;99.90;;;;;;4991595;28;1240;-57
2021/11/01 12:39:21;;;;;;;;;;;16.00;99.90;;;;;;4995559;28;956;-57
2021/11/01 12:45:39;;;;;;;;;;;15.90;99.90;;;;;;4994662;28;1221;-57
2021/11/01 12:58:43;;;;;;;;;;;15.80;99.90;;;;;;4997140;28;955;-57
2021/11/01 13:01:14;;;;;;;;;;;15.80;99.90;;;;;;4996716;28;1678;-57
2021/11/01 13:03:47;;;;;;;;;;;15.80;99.90;;;;;;4996670;28;910;-57
2021/11/01 13:06:23;;;;;;;;;;;15.80;99.90;;;;;;4996790;28;855;-57
2021/11/01 13:08:50;;;;;;;;;;;15.80;99.90;;;;;;4996630;28;920;-57
2021/11/01 13:11:30;;;;;;;;;;;15.80;99.90;;;;;;4980909;28;903;-57
2021/11/01 13:14:27;;;;;;;;;;;15.80;99.90;;;;;;4997001;28;1914;-57
2021/11/01 13:19:32;;;;;;;;;;;15.80;99.90;;;;;;4996773;28;839;-57
2021/11/01 13:22:04;;;;;;;;;;;15.80;99.90;;;;;;4980299;28;905;-57
2021/11/01 13:24:39;;;;;;;;;;;15.80;99.90;;;;;;4996712;28;863;-57
2021/11/01 13:38:00;;;;;;;;;;;15.70;99.90;;;;;;4996556;28;767;-57
2021/11/01 13:40:32;;;;;;;;;;;15.70;99.90;;;;;;4996411;28;814;-57
2021/11/01 13:42:59;;;;;;;;;;;15.70;99.90;;;;;;4996488;28;752;-57
2021/11/01 13:45:26;;;;;;;;;;;15.70;99.90;;;;;;4996687;28;1041;-57
2021/11/01 13:47:53;;;;;;;;;;;15.70;99.90;;;;;;4996367;28;988;-57
2021/11/01 13:50:20;;;;;;;;;;;15.70;99.90;;;;;;4996657;28;912;-57
2021/11/01 13:52:56;;;;;;;;;;;15.70;99.90;;;;;;4996478;28;801;-57
2021/11/01 13:55:25;;;;;;;;;;;15.70;99.90;;;;;;4996453;28;1957;-57
2021/11/01 13:58:03;;;;;;;;;;;15.70;99.90;;;;;;4992289;28;827;-57
2021/11/01 14:11:19;;;;;;;;;;;15.70;99.90;;;;;;5000156;28;758;-57
2021/11/01 14:27:16;;;;;;;;;;;15.60;99.90;;;;;;4999828;28;909;-57
2021/11/01 14:30:51;;;;;;;;;;;15.60;99.90;;;;;;4999915;28;914;-57
2021/11/01 15:15:28;;;;;;;;;;;15.40;99.90;;;;;;4978198;28;1920;-57
2021/11/01 15:23:19;;;;;;;;;;;15.40;99.90;;;;;;4979183;28;901;-57
2021/11/01 16:19:54;;;;;;;;;;;15.20;99.90;;;;;;4978347;28;827;-57
2021/11/01 16:22:20;;;;;;;;;;;15.20;99.90;;;;;;4978673;28;936;-57
2021/11/01 16:24:47;;;;;;;;;;;15.20;99.90;;;;;;4978663;28;941;-57
2021/11/01 16:27:15;;;;;;;;;;;15.20;99.90;;;;;;4978272;28;922;-58
2021/11/01 16:32:51;;;;;;;;;;;15.10;99.90;;;;;;4978024;28;864;-57
2021/11/01 16:35:19;;;;;;;;;;;15.10;99.90;;;;;;4977817;28;1879;-57
2021/11/01 16:37:52;;;;;;;;;;;15.10;99.90;;;;;;4978367;28;978;-57
2021/11/01 16:40:18;;;;;;;;;;;15.10;99.90;;;;;;4977576;28;840;-57
2021/11/01 16:42:46;;;;;;;;;;;15.10;99.90;;;;;;4977907;28;892;-57
2021/11/01 16:47:46;;;;;;;;;;;15.10;99.90;;;;;;4977800;28;816;-57
2021/11/01 16:50:13;;;;;;;;;;;15.10;99.90;;;;;;4977976;28;900;-57
2021/11/01 16:52:40;;;;;;;;;;;15.10;99.90;;;;;;4977447;28;883;-57
2021/11/01 16:55:30;;;;;;;;;;;15.10;99.90;;;;;;4977493;28;1958;-57
2021/11/01 16:57:58;;;;;;;;;;;15.10;99.90;;;;;;4977737;28;874;-57
2021/11/01 17:00:35;;;;;;;;;;;15.10;99.90;;;;;;4981654;28;1047;-57
2021/11/01 17:21:45;;;;;;;;;;;15.00;99.90;;;;;;4982683;28;707;-57
2021/11/01 17:24:27;;;;;;;;;;;14.90;99.90;;;;;;4996606;28;1333;-57
2021/11/01 17:35:24;;;;;;;;;;;14.90;99.90;;;;;;4996528;28;1969;-57
2021/11/01 18:36:28;;;;;;;;;;;14.70;99.90;;;;;;4978386;28;866;-57
2021/11/01 18:39:06;;;;;;;;;;;14.60;99.90;;;;;;4996171;28;862;-57
2021/11/01 18:41:45;;;;;;;;;;;14.60;99.90;;;;;;4995760;28;785;-57
2021/11/01 18:44:59;;;;;;;;;;;14.60;99.90;;;;;;4979832;28;1099;-57
2021/11/01 18:52:36;;;;;;;;;;;14.60;99.90;;;;;;4999303;28;889;-57
2021/11/01 18:55:04;;;;;;;;;;;14.60;99.90;;;;;;4998955;28;1982;-57
2021/11/01 18:57:32;;;;;;;;;;;14.60;99.90;;;;;;4998271;28;1002;-57
2021/11/01 18:59:59;;;;;;;;;;;14.50;99.90;;;;;;5000138;28;1122;-57
2021/11/01 19:02:44;;;;;;;;;;;14.50;99.90;;;;;;5018228;28;1037;-57
2021/11/01 19:05:24;;;;;;;;;;;14.50;99.90;;;;;;5018193;28;801;-57
2021/11/01 19:07:59;;;;;;;;;;;14.50;99.90;;;;;;5017611;28;902;-57
2021/11/01 20:05:15;;;;;;;;;;;14.30;99.90;;;;;;4978567;28;826;-57
2021/11/01 21:25:15;;;;;;;;;;;14.00;99.90;;;;;;4996653;28;857;-57
2021/11/01 21:27:42;;;;;;;;;;;14.00;99.90;;;;;;4995407;28;851;-57
2021/11/01 21:30:09;;;;;;;;;;;14.00;99.90;;;;;;4995076;28;747;-57
2021/11/01 21:32:35;;;;;;;;;;;14.00;99.90;;;;;;4996381;28;1116;-57
2021/11/01 21:35:05;;;;;;;;;;;14.00;99.90;;;;;;4996391;28;1971;-57
2021/11/01 21:37:31;;;;;;;;;;;14.00;99.90;;;;;;4995060;28;1007;-57
2021/11/01 21:39:59;;;;;;;;;;;13.90;99.90;;;;;;4996694;28;787;-57
2021/11/01 21:42:26;;;;;;;;;;;13.90;99.90;;;;;;4996448;28;878;-57
2021/11/01 21:44:52;;;;;;;;;;;13.90;99.90;;;;;;4996581;28;976;-57
2021/11/01 21:47:19;;;;;;;;;;;13.90;99.90;;;;;;4996539;28;944;-57
2021/11/01 21:49:45;;;;;;;;;;;13.90;99.90;;;;;;4996467;28;942;-57
2021/11/01 21:52:13;;;;;;;;;;;13.90;99.90;;;;;;4996411;28;797;-57
2021/11/01 21:54:50;;;;;;;;;;;13.90;99.90;;;;;;4996227;28;1973;-57
2021/11/01 21:57:21;;;;;;;;;;;13.90;99.90;;;;;;4995841;28;946;-57
2021/11/01 22:00:20;;;;;;;;;;;13.90;99.90;;;;;;4996288;28;1638;-57
2021/11/01 22:22:11;;;;;;;;;;;13.90;99.90;;;;;;4995715;28;1203;-57
2021/11/01 22:24:55;;;;;;;;;;;13.90;99.90;;;;;;4996816;28;899;-57
2021/11/01 22:40:38;;;;;;;;;;;13.80;99.90;;;;;;4999786;28;827;-57
2021/11/01 22:56:52;;;;;;;;;;;13.80;99.90;;;;;;4999228;28;1961;-57
2021/11/01 22:59:18;;;;;;;;;;;13.80;99.90;;;;;;4983939;28;1067;-57
2021/11/01 23:01:46;;;;;;;;;;;13.80;99.90;;;;;;4999080;28;992;-57
2021/11/01 23:31:35;;;;;;;;;;;13.70;99.90;;;;;;4998731;28;841;-57
2021/11/01 23:34:10;;;;;;;;;;;13.70;99.90;;;;;;4998843;28;999;-57
2021/11/01 23:36:37;;;;;;;;;;;13.70;99.90;;;;;;4997635;28;1899;-57
2021/11/01 23:39:07;;;;;;;;;;;13.70;99.90;;;;;;4981744;28;892;-57
2021/11/01 23:41:34;;;;;;;;;;;13.70;99.90;;;;;;4994585;28;885;-57
2021/11/01 23:44:00;;;;;;;;;;;13.70;99.90;;;;;;4998820;28;935;-57
2021/11/01 23:46:26;;;;;;;;;;;13.70;99.90;;;;;;4998352;28;1144;-57
2021/11/01 23:48:52;;;;;;;;;;;13.70;99.90;;;;;;4998596;28;818;-57
2021/11/01 23:51:30;;;;;;;;;;;13.60;99.90;;;;;;4998651;28;782;-57
2021/11/01 23:56:27;;;;;;;;;;;13.70;99.90;;;;;;4995539;28;1957;-57
2021/11/01 23:58:53;;;;;;;;;;;13.60;99.90;;;;;;4998506;28;1040;-57
